createdAt,value
2023-05-19T00:01:01.972Z,3.47
2023-05-19T00:03:31.799Z,2.75
2023-05-19T00:06:02.838Z,2.97
2023-05-19T00:08:33.675Z,1.50
2023-05-19T00:11:02.772Z,4.20
2023-05-19T00:13:30.974Z,4.07
2023-05-19T00:15:59.547Z,4.30
2023-05-19T00:18:29.863Z,2.40
2023-05-19T00:20:57.856Z,1.80
2023-05-19T00:23:25.898Z,2.60
2023-05-19T00:25:55.259Z,2.05
2023-05-19T00:28:23.336Z,2.00
2023-05-19T00:30:52.178Z,2.42
2023-05-19T00:33:20.272Z,1.75
2023-05-19T00:35:48.525Z,4.88
2023-05-19T00:38:16.573Z,4.20
2023-05-19T00:40:44.736Z,2.63
2023-05-19T00:43:14.559Z,6.22
2023-05-19T00:45:42.714Z,5.53
2023-05-19T00:48:10.814Z,2.42
2023-05-19T00:50:38.956Z,2.38
2023-05-19T00:53:07.044Z,3.08
2023-05-19T00:55:38.158Z,2.30
2023-05-19T00:58:07.395Z,2.78
2023-05-19T01:00:38.633Z,4.57
2023-05-19T01:03:11.529Z,3.42
2023-05-19T01:05:44.793Z,2.63
2023-05-19T01:08:13.271Z,4.38
2023-05-19T01:10:42.017Z,3.58
2023-05-19T01:13:10.072Z,4.63
2023-05-19T01:15:52.415Z,3.50
2023-05-19T01:18:28.220Z,5.68
2023-05-19T01:21:12.516Z,2.33
2023-05-19T01:23:49.317Z,3.22
2023-05-19T01:26:32.674Z,1.98
2023-05-19T01:29:10.020Z,1.40
2023-05-19T01:31:42.043Z,2.47
2023-05-19T01:34:11.762Z,3.88
2023-05-19T01:36:44.779Z,2.72
2023-05-19T01:39:14.991Z,4.22
2023-05-19T01:41:45.775Z,2.13
2023-05-19T01:44:14.178Z,6.25
2023-05-19T01:46:44.250Z,2.92
2023-05-19T01:49:14.723Z,2.45
2023-05-19T01:51:42.820Z,4.47
2023-05-19T01:54:10.831Z,4.97
2023-05-19T01:56:46.373Z,3.45
2023-05-19T01:59:29.644Z,5.10
2023-05-19T02:02:02.846Z,3.80
2023-05-19T02:04:39.944Z,2.40
2023-05-19T02:07:16.784Z,3.72
2023-05-19T02:09:53.105Z,2.25
2023-05-19T02:12:26.943Z,2.85
2023-05-19T02:15:04.325Z,2.63
2023-05-19T02:17:40.188Z,3.13
2023-05-19T02:20:09.863Z,3.88
2023-05-19T02:22:37.862Z,3.53
2023-05-19T02:25:06.957Z,4.53
2023-05-19T02:27:35.211Z,7.75
2023-05-19T02:30:03.769Z,5.30
2023-05-19T02:32:32.566Z,2.45
2023-05-19T02:35:02.020Z,3.05
2023-05-19T02:37:31.158Z,3.15
2023-05-19T02:39:59.647Z,3.63
2023-05-19T02:42:27.670Z,3.47
2023-05-19T02:44:55.922Z,2.35
2023-05-19T02:47:24.189Z,2.33
2023-05-19T02:49:52.212Z,1.80
2023-05-19T02:52:21.622Z,5.35
2023-05-19T02:54:49.714Z,8.38
2023-05-19T02:57:17.846Z,3.30
2023-05-19T02:59:45.872Z,6.20
2023-05-19T03:02:14.574Z,1.85
2023-05-19T03:04:43.086Z,3.83
2023-05-19T03:07:13.381Z,2.38
2023-05-19T03:09:43.147Z,4.90
2023-05-19T03:12:11.163Z,2.47
2023-05-19T03:14:39.644Z,2.60
2023-05-19T03:17:10.243Z,6.70
2023-05-19T03:19:38.563Z,1.75
2023-05-19T03:22:06.694Z,3.70
2023-05-19T03:24:36.257Z,3.30
2023-05-19T03:27:06.357Z,4.65
2023-05-19T03:29:34.620Z,4.60
2023-05-19T03:32:03.921Z,4.55
2023-05-19T03:34:32.664Z,1.85
2023-05-19T03:37:00.600Z,4.13
2023-05-19T03:39:28.621Z,3.53
2023-05-19T03:41:57.333Z,6.38
2023-05-19T03:44:26.801Z,5.25
2023-05-19T03:46:55.357Z,7.13
2023-05-19T03:49:29.138Z,3.28
2023-05-19T03:52:06.429Z,3.47
2023-05-19T03:54:46.337Z,5.72
2023-05-19T03:57:15.729Z,5.28
2023-05-19T03:59:45.128Z,7.90
2023-05-19T04:02:13.362Z,4.93
2023-05-19T04:04:41.399Z,5.07
2023-05-19T04:07:09.529Z,3.13
2023-05-19T04:09:37.728Z,7.28
2023-05-19T04:12:06.449Z,2.08
2023-05-19T04:14:34.488Z,2.67
2023-05-19T04:17:04.004Z,4.70
2023-05-19T04:19:32.166Z,3.65
2023-05-19T04:22:00.236Z,7.03
2023-05-19T04:24:28.210Z,4.85
2023-05-19T04:26:57.262Z,7.18
2023-05-19T04:29:25.301Z,2.88
2023-05-19T04:31:53.862Z,4.28
2023-05-19T04:34:23.495Z,5.53
2023-05-19T04:36:53.381Z,5.47
2023-05-19T04:39:23.244Z,2.95
2023-05-19T04:41:54.081Z,4.50
2023-05-19T04:44:22.089Z,5.25
2023-05-19T04:46:54.228Z,6.00
2023-05-19T04:49:28.580Z,6.97
2023-05-19T04:51:56.663Z,3.15
2023-05-19T04:54:29.091Z,4.50
2023-05-19T04:56:57.576Z,5.28
2023-05-19T04:59:28.679Z,8.93
2023-05-19T05:01:56.764Z,7.43
2023-05-19T05:04:28.378Z,4.38
2023-05-19T05:06:56.438Z,5.93
2023-05-19T05:09:25.897Z,5.95
2023-05-19T05:11:55.124Z,3.10
2023-05-19T05:14:23.577Z,6.88
2023-05-19T05:16:52.468Z,5.57
2023-05-19T05:19:24.779Z,5.50
2023-05-19T05:21:54.943Z,4.82
2023-05-19T05:24:23.374Z,5.70
2023-05-19T05:26:56.001Z,6.13
2023-05-19T05:29:24.367Z,10.13
2023-05-19T05:31:53.218Z,7.75
2023-05-19T05:34:21.301Z,7.93
2023-05-19T05:36:49.428Z,10.90
2023-05-19T05:39:20.005Z,17.30
2023-05-19T05:41:48.321Z,9.43
2023-05-19T05:44:16.396Z,16.52
2023-05-19T05:46:46.652Z,14.82
2023-05-19T05:49:15.828Z,6.72
2023-05-19T05:51:54.612Z,9.68
2023-05-19T05:54:32.951Z,11.32
2023-05-19T05:57:02.563Z,11.65
2023-05-19T05:59:31.009Z,12.88
2023-05-19T06:01:59.151Z,13.30
2023-05-19T06:04:27.410Z,10.45
2023-05-19T06:07:01.026Z,18.92
2023-05-19T06:09:33.940Z,8.70
2023-05-19T06:12:03.503Z,9.20
2023-05-19T06:14:36.719Z,15.75
2023-05-19T06:17:23.220Z,9.88
2023-05-19T06:19:52.809Z,11.98
2023-05-19T06:22:21.290Z,6.95
2023-05-19T06:24:50.687Z,12.32
2023-05-19T06:27:20.792Z,7.38
2023-05-19T06:29:48.991Z,7.07
2023-05-19T06:32:17.034Z,5.18
2023-05-19T06:34:45.400Z,3.72
2023-05-19T06:37:14.928Z,8.45
2023-05-19T06:39:43.109Z,7.88
2023-05-19T06:42:12.583Z,3.60
2023-05-19T06:45:08.757Z,8.55
2023-05-19T06:47:36.852Z,5.00
2023-05-19T06:50:05.479Z,3.45
2023-05-19T06:52:36.780Z,3.42
2023-05-19T06:55:05.417Z,5.10
2023-05-19T06:57:36.175Z,5.40
2023-05-19T07:00:06.892Z,4.40
2023-05-19T07:02:35.353Z,4.78
2023-05-19T07:05:05.353Z,3.03
2023-05-19T07:07:33.540Z,2.63
2023-05-19T07:10:02.334Z,4.30
2023-05-19T07:12:31.919Z,3.90
2023-05-19T07:15:01.966Z,3.55
2023-05-19T07:17:30.319Z,3.70
2023-05-19T07:19:59.651Z,3.67
2023-05-19T07:22:28.484Z,3.13
2023-05-19T07:24:57.118Z,3.85
2023-05-19T07:27:25.119Z,6.40
2023-05-19T07:29:53.566Z,4.13
2023-05-19T07:32:23.158Z,7.72
2023-05-19T07:34:51.305Z,3.90
2023-05-19T07:37:19.309Z,3.92
2023-05-19T07:39:47.471Z,3.13
2023-05-19T07:42:15.385Z,2.63
2023-05-19T07:44:43.332Z,3.85
2023-05-19T07:47:11.375Z,3.72
2023-05-19T07:49:40.822Z,1.65
2023-05-19T07:52:08.859Z,1.67
2023-05-19T07:54:36.836Z,5.13
2023-05-19T07:57:05.101Z,3.97
2023-05-19T07:59:33.009Z,3.97
2023-05-19T08:02:01.222Z,2.25
2023-05-19T08:04:29.353Z,3.10
2023-05-19T08:06:59.032Z,2.88
2023-05-19T08:09:27.086Z,3.50
2023-05-19T08:11:55.102Z,1.42
2023-05-19T08:14:23.163Z,2.30
2023-05-19T08:16:51.759Z,3.10
2023-05-19T08:19:19.848Z,1.88
2023-05-19T08:21:48.353Z,3.25
2023-05-19T08:24:17.842Z,3.00
2023-05-19T08:26:45.914Z,3.45
2023-05-19T08:29:14.062Z,3.50
2023-05-19T08:31:42.044Z,3.55
2023-05-19T08:34:10.043Z,1.90
2023-05-19T08:36:38.124Z,1.60
2023-05-19T08:39:06.604Z,3.72
2023-05-19T08:41:36.053Z,3.88
2023-05-19T08:44:04.469Z,4.07
2023-05-19T08:46:33.290Z,7.75
2023-05-19T08:49:16.730Z,5.30
2023-05-19T08:51:51.612Z,2.50
2023-05-19T08:54:20.863Z,3.63
2023-05-19T08:56:50.394Z,4.03
2023-05-19T08:59:19.405Z,3.08
2023-05-19T09:01:47.748Z,2.80
2023-05-19T09:04:17.888Z,1.52
2023-05-19T09:06:46.093Z,2.97
2023-05-19T09:09:14.203Z,3.60
2023-05-19T09:11:42.465Z,2.92
2023-05-19T09:14:11.971Z,4.15
2023-05-19T09:16:40.562Z,2.80
2023-05-19T09:19:15.423Z,4.05
2023-05-19T09:21:44.614Z,2.80
2023-05-19T09:24:12.802Z,2.83
2023-05-19T09:26:42.251Z,4.50
2023-05-19T09:29:15.153Z,4.45
2023-05-19T09:31:50.600Z,1.33
2023-05-19T09:34:19.191Z,2.55
2023-05-19T09:36:49.569Z,2.38
2023-05-19T09:39:18.222Z,2.15
2023-05-19T09:41:46.848Z,2.08
2023-05-19T09:44:24.064Z,3.05
2023-05-19T09:46:53.381Z,2.58
2023-05-19T09:49:22.837Z,4.22
2023-05-19T09:51:52.284Z,2.55
2023-05-19T09:54:21.705Z,1.30
2023-05-19T09:56:54.307Z,1.35
2023-05-19T09:59:26.203Z,4.60
2023-05-19T10:01:56.732Z,4.88
2023-05-19T10:04:26.812Z,3.47
2023-05-19T10:06:55.728Z,2.80
2023-05-19T10:09:25.857Z,3.78
2023-05-19T10:11:54.379Z,1.75
2023-05-19T10:14:26.338Z,4.38
2023-05-19T10:16:55.640Z,1.77
2023-05-19T10:19:25.349Z,2.75
2023-05-19T10:21:54.238Z,4.00
2023-05-19T10:24:22.390Z,3.10
2023-05-19T10:26:54.606Z,4.93
2023-05-19T10:29:28.458Z,3.60
2023-05-19T10:32:00.279Z,2.45
2023-05-19T10:34:50.562Z,3.10
2023-05-19T10:37:30.448Z,3.60
2023-05-19T10:39:59.480Z,3.25
2023-05-19T10:42:41.859Z,2.13
2023-05-19T10:45:18.422Z,3.25
2023-05-19T10:47:47.144Z,4.50
2023-05-19T10:50:15.313Z,3.17
2023-05-19T10:52:44.662Z,3.20
2023-05-19T10:55:15.766Z,4.80
2023-05-19T10:57:56.728Z,4.75
2023-05-19T11:00:32.693Z,1.83
2023-05-19T11:03:14.627Z,5.47
2023-05-19T11:05:45.244Z,3.25
2023-05-19T11:08:14.173Z,3.65
2023-05-19T11:10:45.991Z,3.80
2023-05-19T11:13:22.474Z,3.80
2023-05-19T11:15:53.009Z,4.53
2023-05-19T11:18:21.736Z,4.60
2023-05-19T11:20:59.060Z,5.22
2023-05-19T11:23:27.373Z,4.40
2023-05-19T11:25:55.546Z,3.88
2023-05-19T11:28:26.292Z,3.92
2023-05-19T11:30:59.171Z,5.80
2023-05-19T11:33:28.128Z,2.67
2023-05-19T11:35:59.069Z,2.40
2023-05-19T11:38:28.296Z,3.30
2023-05-19T11:40:57.452Z,4.25
2023-05-19T11:43:26.191Z,3.35
2023-05-19T11:45:56.907Z,5.43
2023-05-19T11:48:26.107Z,4.95
2023-05-19T11:50:54.371Z,4.18
2023-05-19T11:53:22.578Z,3.53
2023-05-19T11:55:51.163Z,3.75
2023-05-19T11:58:26.052Z,3.35
2023-05-19T12:00:54.161Z,3.33
2023-05-19T12:03:28.771Z,2.33
2023-05-19T12:05:57.185Z,3.15
2023-05-19T12:08:27.127Z,5.55
2023-05-19T12:10:56.308Z,3.60
2023-05-19T12:13:24.417Z,2.78
2023-05-19T12:15:53.354Z,4.70
2023-05-19T12:18:21.439Z,3.70
2023-05-19T12:20:51.033Z,3.95
2023-05-19T12:23:19.260Z,2.95
2023-05-19T12:25:47.470Z,2.90
2023-05-19T12:28:17.541Z,4.70
2023-05-19T12:30:51.703Z,2.85
2023-05-19T12:33:20.036Z,1.52
2023-05-19T12:35:49.944Z,4.97
2023-05-19T12:38:21.000Z,3.65
2023-05-19T12:40:49.370Z,2.90
2023-05-19T12:43:22.005Z,4.13
2023-05-19T12:45:50.255Z,5.10
2023-05-19T12:48:22.553Z,1.90
2023-05-19T12:50:52.976Z,3.20
2023-05-19T12:53:22.553Z,2.35
2023-05-19T12:55:54.000Z,2.10
2023-05-19T12:58:23.286Z,1.65
2023-05-19T13:00:52.816Z,3.90
2023-05-19T13:03:22.092Z,2.47
2023-05-19T13:05:52.331Z,6.13
2023-05-19T13:08:23.979Z,2.20
2023-05-19T13:10:52.120Z,3.22
2023-05-19T13:13:20.235Z,2.55
2023-05-19T13:15:49.407Z,3.35
2023-05-19T13:18:17.851Z,2.97
2023-05-19T13:20:49.154Z,2.00
2023-05-19T13:23:17.517Z,2.17
2023-05-19T13:25:47.203Z,3.97
2023-05-19T13:28:15.331Z,2.03
2023-05-19T13:30:44.921Z,2.65
2023-05-19T13:33:13.283Z,1.90
2023-05-19T13:35:41.392Z,1.77
2023-05-19T13:38:10.838Z,2.85
2023-05-19T13:40:39.627Z,3.40
2023-05-19T13:43:09.930Z,1.77
2023-05-19T13:45:38.661Z,2.45
2023-05-19T13:48:08.139Z,2.17
2023-05-19T13:50:36.192Z,1.80
2023-05-19T13:53:04.712Z,3.25
2023-05-19T13:55:32.980Z,2.97
2023-05-19T13:58:00.916Z,2.88
2023-05-19T14:00:31.112Z,2.38
2023-05-19T14:03:00.355Z,1.98
2023-05-19T14:05:29.008Z,3.10
2023-05-19T14:07:57.195Z,2.90
2023-05-19T14:10:25.209Z,1.70
2023-05-19T14:15:26.590Z,2.90
2023-05-19T14:17:56.483Z,1.58
2023-05-19T14:20:25.527Z,3.08
2023-05-19T14:22:55.476Z,2.40
2023-05-19T14:25:23.781Z,2.85
2023-05-19T14:27:51.808Z,3.58
2023-05-19T14:30:20.021Z,4.90
2023-05-19T14:32:47.992Z,5.15
2023-05-19T14:35:17.787Z,2.75
2023-05-19T14:37:45.740Z,2.40
2023-05-19T14:40:14.412Z,2.28
2023-05-19T14:42:42.356Z,3.55
2023-05-19T14:45:11.457Z,1.95
2023-05-19T14:47:39.543Z,1.48
2023-05-19T14:50:08.271Z,2.03
2023-05-19T14:52:37.803Z,1.48
2023-05-19T14:55:06.713Z,2.15
2023-05-19T14:57:34.706Z,2.53
2023-05-19T15:00:02.761Z,2.90
2023-05-19T15:02:30.860Z,1.85
2023-05-19T15:05:00.067Z,2.72
2023-05-19T15:07:28.147Z,1.48
2023-05-19T15:09:57.579Z,2.38
2023-05-19T15:12:25.548Z,1.92
2023-05-19T15:14:53.760Z,1.90
2023-05-19T15:17:21.720Z,1.75
2023-05-19T15:19:49.964Z,2.05
2023-05-19T15:22:18.052Z,2.05
2023-05-19T15:24:46.094Z,2.40
2023-05-19T15:27:15.547Z,1.25
2023-05-19T15:29:43.375Z,1.83
2023-05-19T15:32:11.354Z,3.45
2023-05-19T15:34:39.396Z,2.55
2023-05-19T15:37:07.473Z,4.45
2023-05-19T15:39:35.609Z,1.38
2023-05-19T15:42:03.631Z,1.92
2023-05-19T15:44:33.020Z,1.63
2023-05-19T15:47:01.200Z,1.30
2023-05-19T15:49:29.097Z,1.30
2023-05-19T15:51:57.121Z,2.65
2023-05-19T15:54:25.265Z,1.80
2023-05-19T15:56:53.294Z,1.35
2023-05-19T15:59:21.342Z,1.77
2023-05-19T16:01:52.728Z,1.85
2023-05-19T16:04:21.375Z,1.95
2023-05-19T16:06:49.602Z,1.08
2023-05-19T16:09:17.638Z,4.43
2023-05-19T16:11:45.691Z,2.47
2023-05-19T16:14:14.245Z,3.65
2023-05-19T16:16:42.370Z,2.35
2023-05-19T16:19:11.829Z,1.27
2023-05-19T16:21:39.983Z,1.83
2023-05-19T16:24:08.234Z,1.30
2023-05-19T16:26:36.437Z,1.63
2023-05-19T16:29:04.408Z,3.10
2023-05-19T16:31:32.609Z,3.35
2023-05-19T16:34:00.668Z,2.05
2023-05-19T16:36:30.000Z,2.80
2023-05-19T16:38:57.933Z,4.28
2023-05-19T16:41:26.596Z,2.47
2023-05-19T16:43:54.576Z,1.33
2023-05-19T16:46:22.778Z,2.40
2023-05-19T16:48:50.895Z,1.52
2023-05-19T16:51:18.905Z,1.90
2023-05-19T16:53:48.315Z,2.28
2023-05-19T16:56:16.343Z,2.05
2023-05-19T16:58:44.372Z,2.15
2023-05-19T17:01:12.340Z,2.67
2023-05-19T17:03:40.491Z,2.25
2023-05-19T17:06:08.575Z,1.98
2023-05-19T17:08:36.659Z,2.75
2023-05-19T17:11:06.593Z,3.35
2023-05-19T17:13:36.378Z,2.33
2023-05-19T17:16:04.520Z,2.83
2023-05-19T17:18:32.625Z,3.40
2023-05-19T17:21:03.536Z,2.85
2023-05-19T17:23:32.254Z,1.75
2023-05-19T17:26:00.196Z,3.72
2023-05-19T17:28:29.673Z,4.00
2023-05-19T17:30:57.829Z,4.68
2023-05-19T17:33:26.064Z,1.65
2023-05-19T17:35:54.002Z,3.33
2023-05-19T17:38:22.132Z,3.00
2023-05-19T17:40:50.194Z,2.72
2023-05-19T17:43:18.256Z,1.73
2023-05-19T17:45:48.177Z,2.17
2023-05-19T17:48:16.080Z,3.70
2023-05-19T17:50:44.077Z,3.42
2023-05-19T17:53:12.640Z,2.17
2023-05-19T17:55:41.889Z,3.10
2023-05-19T17:58:10.420Z,3.40
2023-05-19T18:00:39.061Z,3.13
2023-05-19T18:03:09.375Z,3.47
2023-05-19T18:05:39.983Z,2.97
2023-05-19T18:08:09.443Z,3.67
2023-05-19T18:10:39.160Z,1.88
2023-05-19T18:13:07.921Z,2.50
2023-05-19T18:15:36.495Z,2.15
2023-05-19T18:18:07.508Z,3.58
2023-05-19T18:20:37.873Z,1.95
2023-05-19T18:23:06.163Z,2.10
2023-05-19T18:25:34.310Z,2.42
2023-05-19T18:28:02.273Z,1.77
2023-05-19T18:30:30.329Z,1.25
2023-05-19T18:33:01.917Z,5.30
2023-05-19T18:35:30.217Z,2.67
2023-05-19T18:37:59.624Z,2.17
2023-05-19T18:40:27.707Z,2.17
2023-05-19T18:42:55.668Z,3.42
2023-05-19T18:45:23.641Z,3.08
2023-05-19T18:47:51.639Z,3.15
2023-05-19T18:50:20.632Z,2.35
2023-05-19T18:52:48.618Z,1.90
2023-05-19T18:55:18.296Z,2.97
2023-05-19T18:57:46.176Z,2.47
2023-05-19T19:00:15.071Z,1.92
2023-05-19T19:02:43.152Z,1.98
2023-05-19T19:05:11.262Z,2.90
2023-05-19T19:07:42.157Z,2.05
2023-05-19T19:10:10.964Z,2.63
2023-05-19T19:12:40.384Z,2.80
2023-05-19T19:15:09.208Z,3.55
2023-05-19T19:17:37.292Z,3.88
2023-05-19T19:20:05.904Z,2.72
2023-05-19T19:22:33.853Z,3.13
2023-05-19T19:25:01.999Z,2.97
2023-05-19T19:27:31.418Z,4.13
2023-05-19T19:30:00.890Z,2.17
2023-05-19T19:32:31.321Z,2.58
2023-05-19T19:34:59.440Z,5.63
2023-05-19T19:37:27.437Z,2.75
2023-05-19T19:39:55.373Z,4.55
2023-05-19T19:42:23.391Z,3.60
2023-05-19T19:44:55.425Z,1.35
2023-05-19T19:47:24.893Z,3.42
2023-05-19T19:49:52.864Z,1.77
2023-05-19T19:52:20.922Z,3.22
2023-05-19T19:54:49.117Z,2.22
2023-05-19T19:57:17.901Z,2.10
2023-05-19T19:59:45.906Z,1.75
2023-05-19T20:02:13.991Z,2.55
2023-05-19T20:04:43.429Z,2.63
2023-05-19T20:07:11.581Z,2.70
2023-05-19T20:09:39.773Z,2.30
2023-05-19T20:12:08.401Z,3.05
2023-05-19T20:14:36.959Z,3.35
2023-05-19T20:17:05.242Z,3.88
2023-05-19T20:19:33.396Z,2.03
2023-05-19T20:22:02.872Z,4.53
2023-05-19T20:24:30.940Z,6.45
2023-05-19T20:26:58.982Z,5.43
2023-05-19T20:29:27.246Z,5.95
2023-05-19T20:31:57.169Z,4.35
2023-05-19T20:34:26.788Z,3.47
2023-05-19T20:36:54.871Z,2.22
2023-05-19T20:39:24.288Z,3.28
2023-05-19T20:41:52.295Z,1.73
2023-05-19T20:44:20.243Z,3.97
2023-05-19T20:46:48.265Z,3.83
2023-05-19T20:49:16.310Z,2.67
2023-05-19T20:51:44.246Z,4.00
2023-05-19T20:54:12.354Z,5.40
2023-05-19T20:56:41.797Z,3.42
2023-05-19T20:59:09.745Z,4.13
2023-05-19T21:01:37.810Z,3.72
2023-05-19T21:04:07.767Z,2.35
2023-05-19T21:06:36.000Z,2.70
2023-05-19T21:09:06.688Z,5.38
2023-05-19T21:11:34.968Z,2.97
2023-05-19T21:14:04.992Z,4.35
2023-05-19T21:16:34.051Z,3.15
2023-05-19T21:19:02.451Z,3.85
2023-05-19T21:21:31.661Z,3.33
2023-05-19T21:23:59.746Z,4.32
2023-05-19T21:26:27.831Z,2.75
2023-05-19T21:28:55.806Z,2.72
2023-05-19T21:31:25.233Z,3.90
2023-05-19T21:33:53.403Z,1.85
2023-05-19T21:36:21.924Z,7.05
2023-05-19T21:38:49.888Z,2.95
2023-05-19T21:41:17.872Z,4.68
2023-05-19T21:43:46.615Z,5.18
2023-05-19T21:46:15.524Z,5.03
2023-05-19T21:48:45.050Z,3.10
2023-05-19T21:51:13.061Z,3.88
2023-05-19T21:53:41.097Z,5.65
2023-05-19T21:56:09.199Z,3.70
2023-05-19T21:58:37.307Z,2.60
2023-05-19T22:01:05.756Z,2.03
2023-05-19T22:03:33.944Z,3.22
2023-05-19T22:06:03.330Z,2.08
2023-05-19T22:08:31.404Z,5.53
2023-05-19T22:10:59.435Z,4.72
2023-05-19T22:13:27.425Z,2.58
2023-05-19T22:15:55.406Z,10.50
2023-05-19T22:18:23.425Z,5.53
2023-05-19T22:20:51.323Z,4.10
2023-05-19T22:23:20.915Z,3.00
2023-05-19T22:25:48.892Z,2.47
2023-05-19T22:28:16.914Z,2.42
2023-05-19T22:30:45.099Z,3.83
2023-05-19T22:33:13.274Z,3.58
2023-05-19T22:35:41.341Z,2.28
2023-05-19T22:38:10.580Z,3.15
2023-05-19T22:40:40.316Z,4.20
2023-05-19T22:43:08.417Z,3.92
2023-05-19T22:45:36.968Z,2.80
2023-05-19T22:48:05.663Z,4.22
2023-05-19T22:50:33.638Z,4.68
2023-05-19T22:53:01.561Z,1.55
2023-05-19T22:55:29.504Z,2.67
2023-05-19T22:57:59.035Z,5.57
2023-05-19T23:00:27.090Z,4.18
2023-05-19T23:02:55.052Z,2.47
2023-05-19T23:05:23.168Z,1.77
2023-05-19T23:07:51.197Z,4.68
2023-05-19T23:10:19.418Z,4.85
2023-05-19T23:12:47.556Z,3.58
2023-05-19T23:15:16.880Z,4.72
2023-05-19T23:17:44.921Z,3.22
2023-05-19T23:20:14.805Z,4.25
2023-05-19T23:22:42.909Z,2.75
2023-05-19T23:25:11.242Z,3.55
2023-05-19T23:27:39.285Z,2.10
2023-05-19T23:30:08.602Z,5.07
2023-05-19T23:32:38.112Z,3.63
2023-05-19T23:35:13.307Z,2.83
2023-05-19T23:37:41.698Z,3.55
2023-05-19T23:40:10.443Z,2.65
2023-05-19T23:42:38.414Z,3.08
2023-05-19T23:45:07.297Z,2.08
2023-05-19T23:47:35.317Z,2.20
2023-05-19T23:50:05.193Z,2.55
2023-05-19T23:52:33.681Z,2.70
2023-05-19T23:55:03.323Z,2.15
2023-05-19T23:57:31.427Z,4.10
